LGKR/CFU METAR and TAF weather

Enter ICAO airport designator
Station Type Date Time Source
LGKR METAR 2021/03/05 13:50 UTC NOAA

LGKR 051350Z 17007KT 9999 SCT025 14/08 Q1019 NOSIG


Station Type Date Time Source
LGKR Decoded METAR 2021/03/05 13:50 UTC NOAA

Kerkyra Airport , Greece (LGKR) 39-37N 019-55E 4M
Mar 05, 2021 - 08:50 AM EST / 2021.03.05 1350 UTC
Wind: from the S (170 degrees) at 8 MPH (7 KT):0
Visibility: greater than 7 mile(s):0
Sky conditions: partly cloudy
Temperature: 57 F (14 C)
Dew Point: 46 F (8 C)
Relative Humidity: 67%
Pressure (altimeter): 30.09 in. Hg (1019 hPa)
ob: LGKR 051350Z 17007KT 9999 SCT025 14/08 Q1019 NOSIG
cycle: 14

Station Type Date Time Source
LGKR TAF 2021/03/05 12:14 UTC NOAA

TAF LGKR 051100Z 0512/0612 16010KT 9999 SCT025
BECMG 0516/0518 SCT015 BKN025 PROB30
TEMPO 0521/0612 5000 RA SCT015 FEW018TCU BKN025

Example: see airport list